createdAt,value
2023-06-28T00:00:15.155Z,212.42
2023-06-28T00:01:15.045Z,211.58
2023-06-28T00:02:15.044Z,211.64
2023-06-28T00:03:14.771Z,214.44
2023-06-28T00:04:14.800Z,211.34
2023-06-28T00:05:14.602Z,212.40
2023-06-28T00:06:14.426Z,213.64
2023-06-28T00:07:14.413Z,210.80
2023-06-28T00:08:14.192Z,211.70
2023-06-28T00:09:14.080Z,209.86
2023-06-28T00:10:13.972Z,209.08
2023-06-28T00:11:14.453Z,210.91
2023-06-28T00:12:13.726Z,210.16
2023-06-28T00:13:13.607Z,209.75
2023-06-28T00:14:13.516Z,211.67
2023-06-28T00:15:13.475Z,211.67
2023-06-28T00:16:13.271Z,211.56
2023-06-28T00:17:13.163Z,213.53
2023-06-28T00:18:13.053Z,211.61
2023-06-28T00:19:12.974Z,210.52
2023-06-28T00:20:12.847Z,211.91
2023-06-28T00:21:12.718Z,212.70
2023-06-28T00:22:12.616Z,210.09
2023-06-28T00:23:12.501Z,211.10
2023-06-28T00:24:12.390Z,212.24
2023-06-28T00:25:12.306Z,209.84
2023-06-28T00:26:12.231Z,210.08
2023-06-28T00:27:12.072Z,211.39
2023-06-28T00:28:11.950Z,212.37
2023-06-28T00:29:11.837Z,210.62
2023-06-28T00:30:11.720Z,211.62
2023-06-28T00:31:11.618Z,209.73
2023-06-28T00:32:11.537Z,213.07
2023-06-28T00:33:11.388Z,212.43
2023-06-28T00:34:11.395Z,210.23
2023-06-28T00:35:11.183Z,210.46
2023-06-28T00:36:11.095Z,210.12
2023-06-28T00:37:10.988Z,210.14
2023-06-28T00:38:10.891Z,211.86
2023-06-28T00:39:10.798Z,209.92
2023-06-28T00:40:10.687Z,211.51
2023-06-28T00:41:10.583Z,211.80
2023-06-28T00:42:11.475Z,210.50
2023-06-28T00:43:10.375Z,212.36
2023-06-28T00:44:10.975Z,211.41
2023-06-28T00:45:10.164Z,209.52
2023-06-28T00:46:10.056Z,209.31
2023-06-28T00:47:09.947Z,211.53
2023-06-28T00:48:09.869Z,208.92
2023-06-28T00:49:09.836Z,209.03
2023-06-28T00:50:09.655Z,211.24
2023-06-28T00:51:09.576Z,210.56
2023-06-28T00:52:09.481Z,207.21
2023-06-28T00:53:09.416Z,208.59
2023-06-28T00:54:09.267Z,209.17
2023-06-28T00:55:09.154Z,209.68
2023-06-28T00:56:09.060Z,210.07
2023-06-28T00:57:08.962Z,210.43
2023-06-28T00:58:08.853Z,208.21
2023-06-28T00:59:08.758Z,211.76
2023-06-28T01:00:08.658Z,208.02
2023-06-28T01:01:08.555Z,207.84
2023-06-28T01:02:08.457Z,209.94
2023-06-28T01:03:08.448Z,209.14
2023-06-28T01:04:08.255Z,206.20
2023-06-28T01:05:08.159Z,207.61
2023-06-28T01:06:08.073Z,207.78
2023-06-28T01:07:07.994Z,209.30
2023-06-28T01:08:07.860Z,208.19
2023-06-28T01:09:07.783Z,209.32
2023-06-28T01:10:07.663Z,209.34
2023-06-28T01:11:07.551Z,211.00
2023-06-28T01:12:07.457Z,207.63
2023-06-28T01:13:07.359Z,210.16
2023-06-28T01:14:07.357Z,208.83
2023-06-28T01:15:07.179Z,208.35
2023-06-28T01:16:07.061Z,207.69
2023-06-28T01:17:06.964Z,205.41
2023-06-28T01:18:06.888Z,206.45
2023-06-28T01:19:06.818Z,206.39
2023-06-28T01:20:06.666Z,210.19
2023-06-28T01:21:06.993Z,206.11
2023-06-28T01:22:06.548Z,207.91
2023-06-28T01:23:07.076Z,205.52
2023-06-28T01:24:06.992Z,206.98
2023-06-28T01:25:06.163Z,207.55
2023-06-28T01:26:06.067Z,206.19
2023-06-28T01:27:05.969Z,207.56
2023-06-28T01:28:05.868Z,207.03
2023-06-28T01:29:05.761Z,207.13
2023-06-28T01:30:05.670Z,209.32
2023-06-28T01:31:05.603Z,206.37
2023-06-28T01:32:05.463Z,207.10
2023-06-28T01:33:05.451Z,209.51
2023-06-28T01:34:05.272Z,207.62
2023-06-28T01:35:05.158Z,207.03
2023-06-28T01:36:05.055Z,205.02
2023-06-28T01:37:04.943Z,204.02
2023-06-28T01:38:04.842Z,203.59
2023-06-28T01:39:04.750Z,206.75
2023-06-28T01:40:04.713Z,206.05
2023-06-28T01:41:04.546Z,205.43
2023-06-28T01:42:04.450Z,205.06
2023-06-28T01:43:04.352Z,206.71
2023-06-28T01:44:04.248Z,206.54
2023-06-28T01:45:04.162Z,206.22
2023-06-28T01:46:04.550Z,205.18
2023-06-28T01:47:03.945Z,203.25
2023-06-28T01:48:04.042Z,203.85
2023-06-28T01:49:03.746Z,205.00
2023-06-28T01:50:03.712Z,202.73
2023-06-28T01:51:03.664Z,203.55
2023-06-28T01:52:03.484Z,205.08
2023-06-28T01:53:03.391Z,205.46
2023-06-28T01:54:04.003Z,202.69
2023-06-28T01:55:03.222Z,206.00
2023-06-28T01:56:03.117Z,206.64
2023-06-28T01:57:03.020Z,205.55
2023-06-28T01:58:02.937Z,207.37
2023-06-28T01:59:02.825Z,205.02
2023-06-28T02:00:02.740Z,206.43
2023-06-28T02:01:02.671Z,204.20
2023-06-28T02:02:02.526Z,206.49
2023-06-28T02:03:02.599Z,207.04
2023-06-28T02:04:02.514Z,204.42
2023-06-28T02:05:02.270Z,204.27
2023-06-28T02:06:02.183Z,205.16
2023-06-28T02:07:02.129Z,206.56
2023-06-28T02:08:02.010Z,206.66
2023-06-28T02:09:01.963Z,204.62
2023-06-28T02:10:01.792Z,204.07
2023-06-28T02:11:01.689Z,205.58
2023-06-28T02:12:01.605Z,205.72
2023-06-28T02:13:01.508Z,207.11
2023-06-28T02:14:01.402Z,203.18
2023-06-28T02:15:01.380Z,207.10
2023-06-28T02:16:01.235Z,203.87
2023-06-28T02:17:01.123Z,208.19
2023-06-28T02:18:01.057Z,205.06
2023-06-28T02:19:00.965Z,202.23
2023-06-28T02:20:00.831Z,203.51
2023-06-28T02:21:00.738Z,204.07
2023-06-28T02:22:00.631Z,204.32
2023-06-28T02:23:00.533Z,206.34
2023-06-28T02:24:00.439Z,204.89
2023-06-28T02:25:00.365Z,205.54
2023-06-28T02:26:00.262Z,205.90
2023-06-28T02:27:00.210Z,204.55
2023-06-28T02:28:00.134Z,205.36
2023-06-28T02:29:00.013Z,207.38
2023-06-28T02:29:59.889Z,205.49
2023-06-28T02:30:59.806Z,203.97
2023-06-28T02:31:59.697Z,205.09
2023-06-28T02:32:59.669Z,204.43
2023-06-28T02:33:59.506Z,204.28
2023-06-28T02:34:59.465Z,206.08
2023-06-28T02:35:59.366Z,203.93
2023-06-28T02:36:59.229Z,203.27
2023-06-28T02:37:59.122Z,207.01
2023-06-28T02:38:59.019Z,204.16
2023-06-28T02:39:58.924Z,205.27
2023-06-28T02:40:58.846Z,204.24
2023-06-28T02:41:59.553Z,202.36
2023-06-28T02:42:58.646Z,205.76
2023-06-28T02:43:58.533Z,202.85
2023-06-28T02:44:58.512Z,201.35
2023-06-28T02:45:58.413Z,203.09
2023-06-28T02:46:58.679Z,202.25
2023-06-28T02:47:59.051Z,199.50
2023-06-28T02:48:58.055Z,200.60
2023-06-28T02:49:58.036Z,201.67
2023-06-28T02:50:57.871Z,200.44
2023-06-28T02:51:57.775Z,203.46
2023-06-28T02:52:57.678Z,201.33
2023-06-28T02:53:57.585Z,199.83
2023-06-28T02:54:57.494Z,200.00
2023-06-28T02:55:57.413Z,201.57
2023-06-28T02:56:57.314Z,201.97
2023-06-28T02:57:57.216Z,202.14
2023-06-28T02:58:57.121Z,202.31
2023-06-28T02:59:57.079Z,202.42
2023-06-28T03:00:56.936Z,204.83
2023-06-28T03:01:56.804Z,200.19
2023-06-28T03:02:56.840Z,200.98
2023-06-28T03:03:56.676Z,199.50
2023-06-28T03:04:56.544Z,201.73
2023-06-28T03:05:56.455Z,202.87
2023-06-28T03:06:56.383Z,200.24
2023-06-28T03:07:56.253Z,201.32
2023-06-28T03:08:56.170Z,197.96
2023-06-28T03:09:56.067Z,201.76
2023-06-28T03:10:55.976Z,200.16
2023-06-28T03:11:55.962Z,202.02
2023-06-28T03:12:55.802Z,198.92
2023-06-28T03:13:55.696Z,201.36
2023-06-28T03:14:55.608Z,201.23
2023-06-28T03:15:55.585Z,200.57
2023-06-28T03:16:55.430Z,200.14
2023-06-28T03:17:55.355Z,197.41
2023-06-28T03:18:55.238Z,200.44
2023-06-28T03:19:55.134Z,200.50
2023-06-28T03:20:55.058Z,200.05
2023-06-28T03:21:54.972Z,201.48
2023-06-28T03:22:54.869Z,201.78
2023-06-28T03:23:54.767Z,201.52
2023-06-28T03:24:54.676Z,200.24
2023-06-28T03:25:54.664Z,200.00
2023-06-28T03:26:54.506Z,200.21
2023-06-28T03:27:54.423Z,201.85
2023-06-28T03:28:54.320Z,199.18
2023-06-28T03:29:54.224Z,200.39
2023-06-28T03:30:54.130Z,198.99
2023-06-28T03:31:54.075Z,200.26
2023-06-28T03:32:53.981Z,199.54
2023-06-28T03:33:53.851Z,199.52
2023-06-28T03:34:53.769Z,199.00
2023-06-28T03:35:53.679Z,198.90
2023-06-28T03:37:03.592Z,199.03
2023-06-28T03:37:54.479Z,199.20
2023-06-28T03:38:53.369Z,199.47
2023-06-28T03:39:53.257Z,199.58
2023-06-28T03:40:53.147Z,200.35
2023-06-28T03:41:53.019Z,199.50
2023-06-28T03:42:52.966Z,200.72
2023-06-28T03:43:52.811Z,199.49
2023-06-28T03:44:53.576Z,196.81
2023-06-28T03:45:52.631Z,198.87
2023-06-28T03:46:52.494Z,196.04
2023-06-28T03:47:52.432Z,196.48
2023-06-28T03:48:52.289Z,197.13
2023-06-28T03:49:52.170Z,196.14
2023-06-28T03:50:52.070Z,194.40
2023-06-28T03:51:51.972Z,194.94
2023-06-28T03:52:51.850Z,191.01
2023-06-28T03:53:51.753Z,192.79
2023-06-28T03:54:51.652Z,194.34
2023-06-28T03:55:51.621Z,192.56
2023-06-28T03:56:51.456Z,195.76
2023-06-28T03:57:51.338Z,192.78
2023-06-28T03:58:51.221Z,192.89
2023-06-28T03:59:51.121Z,193.21
2023-06-28T04:00:51.079Z,192.12
2023-06-28T04:01:50.904Z,189.77
2023-06-28T04:02:50.934Z,189.15
2023-06-28T04:03:50.722Z,189.80
2023-06-28T04:04:50.584Z,187.75
2023-06-28T04:05:50.483Z,187.77
2023-06-28T04:06:50.388Z,187.12
2023-06-28T04:07:50.286Z,188.49
2023-06-28T04:08:50.159Z,188.09
2023-06-28T04:09:50.074Z,187.94
2023-06-28T04:10:49.989Z,188.53
2023-06-28T04:11:49.912Z,186.23
2023-06-28T04:12:49.810Z,186.02
2023-06-28T04:13:49.727Z,184.31
2023-06-28T04:14:49.709Z,186.66
2023-06-28T04:15:49.549Z,186.36
2023-06-28T04:16:49.470Z,187.36
2023-06-28T04:17:49.524Z,184.34
2023-06-28T04:18:49.357Z,185.29
2023-06-28T04:19:49.250Z,186.49
2023-06-28T04:20:49.123Z,183.51
2023-06-28T04:21:49.568Z,182.92
2023-06-28T04:22:48.960Z,183.41
2023-06-28T04:23:48.868Z,182.18
2023-06-28T04:24:48.805Z,181.86
2023-06-28T04:25:48.714Z,182.85
2023-06-28T04:26:48.624Z,183.22
2023-06-28T04:27:48.537Z,182.22
2023-06-28T04:28:48.462Z,181.59
2023-06-28T04:29:48.411Z,183.69
2023-06-28T04:30:48.284Z,182.42
2023-06-28T04:31:48.249Z,181.61
2023-06-28T04:32:49.140Z,182.52
2023-06-28T04:33:48.010Z,183.79
2023-06-28T04:34:47.920Z,181.35
2023-06-28T04:35:47.846Z,181.10
2023-06-28T04:36:47.766Z,181.53
2023-06-28T04:37:47.696Z,181.12
2023-06-28T04:38:47.665Z,179.82
2023-06-28T04:39:47.496Z,180.54
2023-06-28T04:40:47.478Z,180.24
2023-06-28T04:41:47.317Z,178.63
2023-06-28T04:42:47.232Z,181.12
2023-06-28T04:43:47.159Z,179.56
2023-06-28T04:44:47.080Z,178.68
2023-06-28T04:45:47.006Z,177.86
2023-06-28T04:46:46.894Z,176.23
2023-06-28T04:47:46.844Z,176.50
2023-06-28T04:48:46.723Z,174.66
2023-06-28T04:49:46.641Z,176.07
2023-06-28T04:50:46.574Z,174.27
2023-06-28T04:51:46.486Z,176.43
2023-06-28T04:52:46.412Z,177.97
2023-06-28T04:53:46.323Z,176.29
2023-06-28T04:54:46.248Z,176.70
2023-06-28T04:55:46.172Z,177.60
2023-06-28T04:56:46.074Z,176.53
2023-06-28T04:57:45.995Z,174.42
2023-06-28T04:58:45.903Z,172.15
2023-06-28T04:59:45.823Z,174.03
2023-06-28T05:00:45.749Z,172.24
2023-06-28T05:01:45.923Z,173.66
2023-06-28T05:02:45.689Z,171.14
2023-06-28T05:03:45.552Z,173.95
2023-06-28T05:04:45.449Z,170.91
2023-06-28T05:05:45.333Z,169.40
2023-06-28T05:06:45.263Z,167.91
2023-06-28T05:07:45.167Z,168.39
2023-06-28T05:08:45.097Z,167.40
2023-06-28T05:09:45.014Z,166.83
2023-06-28T05:10:45.007Z,166.45
2023-06-28T05:11:44.917Z,164.85
2023-06-28T05:12:44.785Z,165.29
2023-06-28T05:13:44.697Z,164.50
2023-06-28T05:14:44.640Z,164.10
2023-06-28T05:15:44.576Z,166.54
2023-06-28T05:16:44.496Z,166.85
2023-06-28T05:17:44.439Z,163.25
2023-06-28T05:18:44.333Z,164.82
2023-06-28T05:19:44.243Z,163.75
2023-06-28T05:20:44.298Z,164.71
2023-06-28T05:21:44.099Z,165.85
2023-06-28T05:22:44.028Z,112.65
2023-06-28T05:23:43.988Z,27.91
2023-06-28T05:24:44.107Z,0.00
2023-06-28T05:25:43.848Z,0.00
2023-06-28T05:26:44.603Z,0.00
2023-06-28T05:27:43.753Z,0.00
2023-06-28T05:28:43.727Z,0.00
2023-06-28T05:29:43.761Z,0.00
2023-06-28T05:30:43.908Z,0.00
2023-06-28T05:31:43.657Z,10.71
2023-06-28T05:32:43.542Z,20.26
2023-06-28T05:33:43.604Z,25.72
2023-06-28T05:34:43.465Z,25.95
2023-06-28T05:35:43.427Z,27.34
2023-06-28T05:36:44.120Z,29.41
2023-06-28T05:37:43.381Z,31.34
2023-06-28T05:38:43.353Z,31.49
2023-06-28T05:39:43.310Z,34.01
2023-06-28T05:40:43.769Z,33.22
2023-06-28T05:41:43.174Z,33.80
2023-06-28T05:42:43.101Z,33.46
2023-06-28T05:43:43.055Z,33.10
2023-06-28T05:44:43.024Z,35.73
2023-06-28T05:45:42.993Z,35.68
2023-06-28T05:46:42.952Z,35.37
2023-06-28T05:47:42.972Z,37.21
2023-06-28T05:48:42.916Z,37.25
2023-06-28T05:49:42.887Z,37.25
2023-06-28T05:50:44.231Z,38.48
2023-06-28T05:51:42.774Z,39.65
2023-06-28T05:52:42.689Z,39.23
2023-06-28T05:53:42.598Z,41.88
2023-06-28T05:54:42.573Z,43.21
2023-06-28T05:55:42.390Z,41.12
2023-06-28T05:56:42.304Z,42.70
2023-06-28T05:57:42.218Z,43.17
2023-06-28T05:58:42.142Z,43.53
2023-06-28T05:59:42.051Z,44.56
2023-06-28T06:00:42.300Z,45.62
2023-06-28T06:01:41.927Z,45.60
2023-06-28T06:02:41.814Z,45.46
2023-06-28T06:03:41.728Z,46.25
2023-06-28T06:04:41.569Z,46.08
2023-06-28T06:05:41.475Z,47.63
2023-06-28T06:06:41.620Z,49.47
2023-06-28T06:07:41.476Z,56.24
2023-06-28T06:08:41.207Z,57.78
2023-06-28T06:09:41.118Z,60.60
2023-06-28T06:10:41.254Z,61.46
2023-06-28T06:11:40.954Z,59.75
2023-06-28T06:12:40.854Z,60.44
2023-06-28T06:13:40.774Z,60.45
2023-06-28T06:14:40.690Z,63.65
2023-06-28T06:15:40.595Z,62.09
2023-06-28T06:16:40.511Z,62.49
2023-06-28T06:17:41.152Z,64.75
2023-06-28T06:18:41.158Z,67.10
2023-06-28T06:19:40.619Z,65.89
2023-06-28T06:20:40.426Z,68.19
2023-06-28T06:21:40.063Z,68.39
2023-06-28T06:22:39.976Z,72.08
2023-06-28T06:23:39.885Z,73.76
2023-06-28T06:24:39.813Z,72.94
2023-06-28T06:25:39.726Z,74.97
2023-06-28T06:26:39.715Z,78.86
2023-06-28T06:27:39.783Z,80.90
2023-06-28T06:28:39.452Z,78.88
2023-06-28T06:29:39.372Z,85.21
2023-06-28T06:30:40.477Z,86.59
2023-06-28T06:31:39.317Z,89.63
2023-06-28T06:32:39.309Z,90.79
2023-06-28T06:33:39.150Z,92.54
2023-06-28T06:34:38.966Z,93.79
2023-06-28T06:35:38.884Z,95.93
2023-06-28T06:36:38.793Z,97.52
2023-06-28T06:37:38.726Z,98.85
2023-06-28T06:38:38.643Z,101.85
2023-06-28T06:39:38.530Z,103.75
2023-06-28T06:40:38.442Z,106.61
2023-06-28T06:41:38.343Z,107.22
2023-06-28T06:42:38.250Z,111.17
2023-06-28T06:43:38.635Z,115.20
2023-06-28T06:44:38.077Z,119.41
2023-06-28T06:45:37.992Z,127.76
2023-06-28T06:46:37.888Z,134.83
2023-06-28T06:47:37.846Z,140.97
2023-06-28T06:48:37.700Z,150.06
2023-06-28T06:49:37.631Z,158.93
2023-06-28T06:50:37.502Z,165.65
2023-06-28T06:51:37.400Z,170.58
2023-06-28T06:52:37.290Z,178.20
2023-06-28T06:53:37.214Z,185.64
2023-06-28T06:54:37.068Z,190.74
2023-06-28T06:55:37.060Z,198.16
2023-06-28T06:56:36.868Z,202.87
2023-06-28T06:57:36.754Z,208.44
2023-06-28T06:58:36.685Z,215.33
2023-06-28T06:59:36.668Z,216.72
2023-06-28T07:00:36.455Z,220.62
2023-06-28T07:01:36.483Z,225.93
2023-06-28T07:02:36.251Z,230.10
2023-06-28T07:03:36.117Z,232.32
2023-06-28T07:04:36.068Z,238.24
2023-06-28T07:05:35.950Z,242.47
2023-06-28T07:06:35.792Z,247.22
2023-06-28T07:07:35.705Z,250.00
2023-06-28T07:08:35.566Z,250.00
2023-06-28T07:09:35.455Z,250.00
2023-06-28T07:10:35.351Z,250.00
2023-06-28T07:11:35.273Z,250.00
2023-06-28T07:12:35.135Z,249.84
2023-06-28T07:13:35.041Z,228.51
2023-06-28T07:14:35.642Z,205.68
2023-06-28T07:15:35.838Z,189.01
2023-06-28T07:16:34.729Z,169.65
2023-06-28T07:17:34.673Z,150.58
2023-06-28T07:18:34.725Z,132.82
2023-06-28T07:19:34.445Z,120.73
2023-06-28T07:20:34.344Z,110.84
2023-06-28T07:21:34.261Z,102.95
2023-06-28T07:22:34.166Z,96.93
2023-06-28T07:23:34.090Z,96.58
2023-06-28T07:24:33.993Z,98.73
2023-06-28T07:25:33.909Z,102.96
2023-06-28T07:26:33.817Z,103.10
2023-06-28T07:27:33.745Z,107.43
2023-06-28T07:28:33.644Z,113.20
2023-06-28T07:29:33.550Z,116.94
2023-06-28T07:30:33.460Z,127.23
2023-06-28T07:31:33.382Z,131.52
2023-06-28T07:32:33.295Z,138.76
2023-06-28T07:33:33.148Z,147.26
2023-06-28T07:34:33.055Z,153.66
